Aviation Digital Data Service (ADDS)

Output produced by METARs form (1742 UTC 26 October 2021)
found at http://aviationweather.gov/metar/data/
 
METAR text: KMHR 261735Z AUTO 17009KT 10SM SCT100 15/10 A3021 RMK A01
Conditions at: KMHR (MATHER FIELD , CA, US) observed 1735 UTC 26 October 2021
Temperature: 15.0°C (59°F)
Dewpoint: 10.0°C (50°F) [RH = 72%]
Pressure (altimeter): 30.21 inches Hg (1023.1 mb)
Winds: from the S (170 degrees) at 10 MPH (9 knots; 4.6 m/s)
Visibility: 10 or more miles (16+ km)
Ceiling: at least 12,000 feet AGL
Clouds: scattered clouds at 10000 feet AGL
Weather: automated observation with no human augmentation;
there may or may not be significant weather present at this time

METAR text: KMHR 261715Z AUTO 15008KT 10SM CLR 15/10 A3020 RMK A01
Conditions at: KMHR (MATHER FIELD , CA, US) observed 1715 UTC 26 October 2021
Temperature: 15.0°C (59°F)
Dewpoint: 10.0°C (50°F) [RH = 72%]
Pressure (altimeter): 30.20 inches Hg (1022.8 mb)
Winds: from the SSE (150 degrees) at 9 MPH (8 knots; 4.1 m/s)
Visibility: 10 or more miles (16+ km)
Ceiling: at least 12,000 feet AGL
Clouds: sky clear below 12,000 feet AGL
Weather: automated observation with no human augmentation;
there may or may not be significant weather present at this time

METAR text: KMHR 261655Z AUTO 14011KT 10SM FEW095 14/10 A3019 RMK A01
Conditions at: KMHR (MATHER FIELD , CA, US) observed 1655 UTC 26 October 2021
Temperature: 14.0°C (57°F)
Dewpoint: 10.0°C (50°F) [RH = 77%]
Pressure (altimeter): 30.19 inches Hg (1022.4 mb)
Winds: from the SE (140 degrees) at 13 MPH (11 knots; 5.7 m/s)
Visibility: 10 or more miles (16+ km)
Ceiling: at least 12,000 feet AGL
Clouds: few clouds at 9500 feet AGL
Weather: automated observation with no human augmentation;
there may or may not be significant weather present at this time

Forecast for: KMHR (MATHER FIELD , CA, US)
Text: KMHR 261740Z 2618/2718 15008KT P6SM SCT030 BKN090
Forecast period: 1800 UTC 26 October 2021 to 0200 UTC 27 October 2021
Forecast type: FROM: standard forecast or significant change
Winds: from the SSE (150 degrees) at 9 MPH (8 knots; 4.1 m/s)
Visibility: 6 or more miles (10+ km)
Ceiling: 9000 feet AGL
Clouds: scattered clouds at 3000 feet AGL
broken clouds at 9000 feet AGL
Weather: no significant weather forecast for this period
Text: FM270200 VRB03KT P6SM OVC050
Forecast period: 0200 to 1800 UTC 27 October 2021
Forecast type: FROM: standard forecast or significant change
Winds: variable direction winds at 3 MPH (3 knots; 1.5 m/s)
Visibility: 6 or more miles (10+ km)
Ceiling: 5000 feet AGL
Clouds: overcast cloud deck at 5000 feet AGL
Weather: no significant weather forecast for this period